createdAt,value
2022-09-28T00:00:42.359Z,2.30
2022-09-28T00:03:10.649Z,2.43
2022-09-28T00:05:39.277Z,4.37
2022-09-28T00:08:09.076Z,3.07
2022-09-28T00:10:46.475Z,3.17
2022-09-28T00:13:16.222Z,3.03
2022-09-28T00:15:46.816Z,3.03
2022-09-28T00:18:13.780Z,7.10
2022-09-28T00:20:51.639Z,4.33
2022-09-28T00:23:29.221Z,5.13
2022-09-28T00:26:03.075Z,2.50
2022-09-28T00:28:33.660Z,2.67
2022-09-28T00:31:03.946Z,5.43
2022-09-28T00:33:40.711Z,3.97
2022-09-28T00:36:09.079Z,2.20
2022-09-28T00:38:41.175Z,2.70
2022-09-28T00:41:12.589Z,2.87
2022-09-28T00:44:19.471Z,3.23
2022-09-28T00:46:47.520Z,2.37
2022-09-28T00:49:41.446Z,2.97
2022-09-28T00:52:13.007Z,2.87
2022-09-28T00:54:58.008Z,2.90
2022-09-28T00:57:27.860Z,3.13
2022-09-28T00:59:58.978Z,4.63
2022-09-28T01:02:27.350Z,3.40
2022-09-28T01:04:58.905Z,3.10
2022-09-28T01:07:36.511Z,2.57
2022-09-28T01:10:07.741Z,2.90
2022-09-28T01:12:43.693Z,4.63
2022-09-28T01:15:13.985Z,3.03
2022-09-28T01:18:07.565Z,3.43
2022-09-28T01:21:14.727Z,3.07
2022-09-28T01:24:33.321Z,4.33
2022-09-28T01:27:59.820Z,2.53
2022-09-28T01:30:29.222Z,4.10
2022-09-28T01:33:07.179Z,3.47
2022-09-28T01:35:43.395Z,3.33
2022-09-28T01:38:21.376Z,2.80
2022-09-28T01:40:49.963Z,3.50
2022-09-28T01:43:30.282Z,3.37
2022-09-28T01:46:14.620Z,2.67
2022-09-28T01:49:13.015Z,2.67
2022-09-28T01:52:05.111Z,2.50
2022-09-28T01:54:53.695Z,2.43
2022-09-28T01:57:59.340Z,3.63
2022-09-28T02:00:27.923Z,2.53
2022-09-28T02:03:00.683Z,2.83
2022-09-28T02:05:33.141Z,2.60
2022-09-28T02:08:16.042Z,2.10
2022-09-28T02:10:53.080Z,2.10
2022-09-28T02:13:46.321Z,2.47
2022-09-28T02:16:16.169Z,2.40
2022-09-28T02:18:45.065Z,3.03
2022-09-28T02:21:17.775Z,1.87
2022-09-28T02:23:53.505Z,2.17
2022-09-28T02:26:25.155Z,3.17
2022-09-28T02:28:52.201Z,2.20
2022-09-28T02:31:19.339Z,2.47
2022-09-28T02:33:48.101Z,3.83
2022-09-28T02:36:15.650Z,3.40
2022-09-28T02:38:43.975Z,1.97
2022-09-28T02:41:23.040Z,2.33
2022-09-28T02:44:14.297Z,2.10
2022-09-28T02:46:59.884Z,3.70
2022-09-28T02:49:26.839Z,2.07
2022-09-28T02:52:18.480Z,2.40
2022-09-28T02:55:11.770Z,2.10
2022-09-28T02:58:01.325Z,2.13
2022-09-28T03:00:32.803Z,2.20
2022-09-28T03:03:04.064Z,2.67
2022-09-28T03:06:09.420Z,2.27
2022-09-28T03:08:49.756Z,2.80
2022-09-28T03:11:40.885Z,2.10
2022-09-28T03:14:08.003Z,3.67
2022-09-28T03:16:35.194Z,3.77
2022-09-28T03:19:02.244Z,4.73
2022-09-28T03:21:29.206Z,2.37
2022-09-28T03:23:56.190Z,3.00
2022-09-28T03:26:23.166Z,2.10
2022-09-28T03:28:50.127Z,2.10
2022-09-28T03:31:17.153Z,1.77
2022-09-28T03:33:44.166Z,3.60
2022-09-28T03:36:11.241Z,1.83
2022-09-28T03:38:38.741Z,2.10
2022-09-28T03:41:05.920Z,2.37
2022-09-28T03:43:32.975Z,2.90
2022-09-28T03:46:01.842Z,2.23
2022-09-28T03:48:32.907Z,3.10
2022-09-28T03:51:03.107Z,2.03
2022-09-28T03:53:30.545Z,2.20
2022-09-28T03:56:06.987Z,1.97
2022-09-28T03:58:34.660Z,2.10
2022-09-28T04:01:03.677Z,2.23
2022-09-28T04:03:31.586Z,2.77
2022-09-28T04:05:58.810Z,2.93
2022-09-28T04:08:25.902Z,3.93
2022-09-28T04:10:55.912Z,3.10
2022-09-28T04:13:22.956Z,3.83
2022-09-28T04:15:55.015Z,2.77
2022-09-28T04:18:22.551Z,2.47
2022-09-28T04:20:59.414Z,2.17
2022-09-28T04:23:28.351Z,3.27
2022-09-28T04:25:55.356Z,3.67
2022-09-28T04:28:40.674Z,2.20
2022-09-28T04:31:13.166Z,3.27
2022-09-28T04:33:40.331Z,2.63
2022-09-28T04:36:07.553Z,3.03
2022-09-28T04:38:51.650Z,2.47
2022-09-28T04:41:20.038Z,6.60
2022-09-28T04:43:48.035Z,7.33
2022-09-28T04:46:15.628Z,2.63
2022-09-28T04:48:42.655Z,3.00
2022-09-28T04:51:09.734Z,3.70
2022-09-28T04:53:36.835Z,4.90
2022-09-28T04:56:06.995Z,5.60
2022-09-28T04:58:35.930Z,2.37
2022-09-28T05:01:06.901Z,2.70
2022-09-28T05:03:34.445Z,2.93
2022-09-28T05:06:01.795Z,2.90
2022-09-28T05:08:29.886Z,2.47
2022-09-28T05:11:05.695Z,3.47
2022-09-28T05:13:35.930Z,2.13
2022-09-28T05:16:05.391Z,2.20
2022-09-28T05:18:33.010Z,3.47
2022-09-28T05:21:01.466Z,2.47
2022-09-28T05:23:28.431Z,3.33
2022-09-28T05:25:55.435Z,3.37
2022-09-28T05:28:29.073Z,2.90
2022-09-28T05:31:01.185Z,2.87
2022-09-28T05:33:29.446Z,2.90
2022-09-28T05:36:00.871Z,4.07
2022-09-28T05:38:28.523Z,7.60
2022-09-28T05:40:55.699Z,4.43
2022-09-28T05:43:23.407Z,4.13
2022-09-28T05:45:54.493Z,5.97
2022-09-28T05:48:23.086Z,5.33
2022-09-28T05:50:53.460Z,8.07
2022-09-28T05:53:20.850Z,3.43
2022-09-28T05:55:47.895Z,3.53
2022-09-28T05:58:15.337Z,2.63
2022-09-28T06:00:42.555Z,5.33
2022-09-28T06:03:12.803Z,2.50
2022-09-28T06:05:40.414Z,2.57
2022-09-28T06:08:10.693Z,2.87
2022-09-28T06:10:38.393Z,2.27
2022-09-28T06:13:06.606Z,3.00
2022-09-28T06:15:35.775Z,2.60
2022-09-28T06:18:09.190Z,2.57
2022-09-28T06:20:41.224Z,2.70
2022-09-28T06:23:10.118Z,2.77
2022-09-28T06:25:37.541Z,2.40
2022-09-28T06:28:15.577Z,2.83
2022-09-28T06:30:43.922Z,2.40
2022-09-28T06:33:13.035Z,6.13
2022-09-28T06:35:40.840Z,4.20
2022-09-28T06:38:08.431Z,2.13
2022-09-28T06:40:36.170Z,2.10
2022-09-28T06:43:12.710Z,2.37
2022-09-28T06:45:39.753Z,4.53
2022-09-28T06:48:07.811Z,5.13
2022-09-28T06:50:37.837Z,2.03
2022-09-28T06:53:07.034Z,2.13
2022-09-28T06:55:34.095Z,3.80
2022-09-28T06:58:06.370Z,4.13
2022-09-28T07:00:36.289Z,5.90
2022-09-28T07:03:05.825Z,3.60
2022-09-28T07:05:36.872Z,3.17
2022-09-28T07:08:07.401Z,3.50
2022-09-28T07:10:34.833Z,2.37
2022-09-28T07:13:05.076Z,2.30
2022-09-28T07:15:33.022Z,2.17
2022-09-28T07:18:03.734Z,2.77
2022-09-28T07:20:48.428Z,2.40
2022-09-28T07:23:20.214Z,2.33
2022-09-28T07:25:50.385Z,2.13
2022-09-28T07:28:17.807Z,2.50
2022-09-28T07:30:44.966Z,3.22
2022-09-28T07:33:14.667Z,3.63
2022-09-28T07:35:44.800Z,2.10
2022-09-28T07:38:11.817Z,3.95
2022-09-28T07:40:57.427Z,2.10
2022-09-28T07:43:24.541Z,2.60
2022-09-28T07:45:53.197Z,1.90
2022-09-28T07:48:21.042Z,1.77
2022-09-28T07:50:53.521Z,1.80
2022-09-28T07:53:22.490Z,1.50
2022-09-28T07:55:53.951Z,1.95
2022-09-28T07:58:21.639Z,1.88
2022-09-28T08:00:50.344Z,2.85
2022-09-28T08:03:19.476Z,2.70
2022-09-28T08:05:47.746Z,2.53
2022-09-28T08:08:15.591Z,2.58
2022-09-28T08:10:46.984Z,2.03
2022-09-28T08:13:15.394Z,2.78
2022-09-28T08:15:42.898Z,2.08
2022-09-28T08:18:10.255Z,2.15
2022-09-28T08:20:56.116Z,2.90
2022-09-28T08:23:23.718Z,5.00
2022-09-28T08:25:54.189Z,4.13
2022-09-28T08:28:23.275Z,3.35
2022-09-28T08:30:50.879Z,2.35
2022-09-28T08:33:21.418Z,2.78
2022-09-28T08:35:56.127Z,3.08
2022-09-28T08:38:23.390Z,2.50
2022-09-28T08:41:15.645Z,2.47
2022-09-28T08:44:04.556Z,3.17
2022-09-28T08:46:42.275Z,2.63
2022-09-28T08:49:42.244Z,3.08
2022-09-28T08:52:37.213Z,3.78
2022-09-28T08:55:30.155Z,2.67
2022-09-28T08:58:00.131Z,3.30
2022-09-28T09:00:40.136Z,5.07
2022-09-28T09:03:12.308Z,4.03
2022-09-28T09:05:48.461Z,3.92
2022-09-28T09:08:43.309Z,3.55
2022-09-28T09:11:30.241Z,4.03
2022-09-28T09:14:09.451Z,4.30
2022-09-28T09:17:00.316Z,5.15
2022-09-28T09:19:35.715Z,4.70
2022-09-28T09:22:18.327Z,4.10
2022-09-28T09:25:18.395Z,5.90
2022-09-28T09:27:52.465Z,3.20
2022-09-28T09:30:29.372Z,4.03
2022-09-28T09:33:12.615Z,3.07
2022-09-28T09:36:22.697Z,2.72
2022-09-28T09:39:08.415Z,2.90
2022-09-28T09:41:59.632Z,4.55
2022-09-28T09:44:36.401Z,2.47
2022-09-28T09:47:08.084Z,2.20
2022-09-28T09:49:43.522Z,2.67
2022-09-28T09:55:14.240Z,3.35
2022-09-28T09:57:44.092Z,3.80
2022-09-28T10:00:14.110Z,2.33
2022-09-28T10:02:43.222Z,2.95
2022-09-28T10:05:13.358Z,2.80
2022-09-28T10:08:05.154Z,3.20
2022-09-28T10:10:38.056Z,3.40
2022-09-28T10:13:05.398Z,3.40
2022-09-28T10:15:35.615Z,3.47
2022-09-28T10:18:11.325Z,3.63
2022-09-28T10:20:41.142Z,3.43
2022-09-28T10:23:25.868Z,3.20
2022-09-28T10:25:58.494Z,3.40
2022-09-28T10:28:40.109Z,3.10
2022-09-28T10:31:36.647Z,3.90
2022-09-28T10:34:27.781Z,3.60
2022-09-28T10:37:06.742Z,3.20
2022-09-28T10:39:45.850Z,3.23
2022-09-28T10:42:19.006Z,3.40
2022-09-28T10:44:56.762Z,2.77
2022-09-28T10:47:26.337Z,2.70
2022-09-28T10:49:55.100Z,3.53
2022-09-28T10:52:43.240Z,3.55
2022-09-28T10:55:24.758Z,2.93
2022-09-28T10:57:52.339Z,3.20
2022-09-28T11:00:34.652Z,2.90
2022-09-28T11:03:03.035Z,3.30
2022-09-28T11:05:30.312Z,3.17
2022-09-28T11:08:00.865Z,2.90
2022-09-28T11:10:30.075Z,3.30
2022-09-28T11:12:57.870Z,4.30
2022-09-28T11:15:31.654Z,3.65
2022-09-28T11:18:25.704Z,3.10
2022-09-28T11:20:52.863Z,3.08
2022-09-28T11:23:30.166Z,5.90
2022-09-28T11:26:05.956Z,4.20
2022-09-28T11:28:37.600Z,3.10
2022-09-28T11:31:08.068Z,3.47
2022-09-28T11:33:47.476Z,3.53
2022-09-28T11:36:14.574Z,4.77
2022-09-28T11:38:47.629Z,2.73
2022-09-28T11:41:41.127Z,2.90
2022-09-28T11:44:36.374Z,3.10
2022-09-28T11:47:28.041Z,3.60
2022-09-28T11:50:24.036Z,3.30
2022-09-28T11:53:01.821Z,5.13
2022-09-28T11:55:54.940Z,3.00
2022-09-28T11:58:34.349Z,3.63
2022-09-28T12:01:40.701Z,3.70
2022-09-28T12:04:55.100Z,3.27
2022-09-28T12:07:30.051Z,3.23
2022-09-28T12:10:35.826Z,3.40
2022-09-28T12:13:14.297Z,3.27
2022-09-28T12:18:47.003Z,3.50
2022-09-28T12:21:28.380Z,3.70
2022-09-28T12:24:02.516Z,3.60
2022-09-28T12:26:46.566Z,4.93
2022-09-28T12:29:20.809Z,3.20
2022-09-28T12:32:12.635Z,3.30
2022-09-28T12:34:42.621Z,3.63
2022-09-28T12:37:22.226Z,5.03
2022-09-28T12:40:05.527Z,3.63
2022-09-28T12:42:57.406Z,4.80
2022-09-28T12:45:43.032Z,3.50
2022-09-28T12:48:36.542Z,3.60
2022-09-28T12:51:27.971Z,3.33
2022-09-28T12:54:40.580Z,3.57
2022-09-28T12:57:36.701Z,3.10
2022-09-28T13:00:10.469Z,3.17
2022-09-28T13:02:56.555Z,3.33
2022-09-28T13:05:23.588Z,3.40
2022-09-28T13:08:05.037Z,3.17
2022-09-28T13:10:55.981Z,3.00
2022-09-28T13:13:35.200Z,3.37
2022-09-28T13:16:06.173Z,3.63
2022-09-28T13:18:57.294Z,3.42
2022-09-28T13:21:38.763Z,4.13
2022-09-28T13:24:31.193Z,4.53
2022-09-28T13:26:59.942Z,4.05
2022-09-28T13:29:27.642Z,3.40
2022-09-28T13:31:57.829Z,5.53
2022-09-28T13:34:31.106Z,3.10
2022-09-28T13:37:11.304Z,3.63
2022-09-28T13:39:58.966Z,3.03
2022-09-28T13:42:25.937Z,3.25
2022-09-28T13:45:13.136Z,3.60
2022-09-28T13:47:58.349Z,2.97
2022-09-28T13:50:54.670Z,3.30
2022-09-28T13:53:39.735Z,2.53
2022-09-28T13:56:31.243Z,4.30
2022-09-28T13:59:22.740Z,2.45
2022-09-28T14:02:06.977Z,3.30
2022-09-28T14:05:04.704Z,3.55
2022-09-28T14:07:34.696Z,2.53
2022-09-28T14:10:17.445Z,2.42
2022-09-28T14:12:46.384Z,2.47
2022-09-28T14:15:37.852Z,3.38
2022-09-28T14:18:24.000Z,3.97
2022-09-28T14:21:25.960Z,3.25
2022-09-28T14:24:21.756Z,1.92
2022-09-28T14:27:15.427Z,2.13
2022-09-28T14:29:42.741Z,2.10
2022-09-28T14:32:09.724Z,2.05
2022-09-28T14:34:48.441Z,3.30
2022-09-28T14:38:01.050Z,2.00
2022-09-28T14:40:51.291Z,2.43
2022-09-28T14:43:32.078Z,4.33
2022-09-28T14:46:25.528Z,2.70
2022-09-28T14:49:17.807Z,3.03
2022-09-28T14:51:47.878Z,2.13
2022-09-28T14:54:26.953Z,2.63
2022-09-28T14:56:54.226Z,3.37
2022-09-28T14:59:43.648Z,2.00
2022-09-28T15:02:32.424Z,3.07
2022-09-28T15:05:14.713Z,2.73
2022-09-28T15:08:00.405Z,2.60
2022-09-28T15:10:35.660Z,2.30
2022-09-28T15:13:24.057Z,2.40
2022-09-28T15:16:13.512Z,3.37
2022-09-28T15:19:06.812Z,2.93
2022-09-28T15:21:40.376Z,2.70
2022-09-28T15:24:28.100Z,2.53
2022-09-28T15:26:56.516Z,3.27
2022-09-28T15:29:23.509Z,4.83
2022-09-28T15:31:54.275Z,3.00
2022-09-28T15:34:51.958Z,2.57
2022-09-28T15:37:23.021Z,3.10
2022-09-28T15:39:51.713Z,2.67
2022-09-28T15:42:19.434Z,4.30
2022-09-28T15:45:25.580Z,3.30
2022-09-28T15:48:26.601Z,2.60
2022-09-28T15:51:11.978Z,2.63
2022-09-28T15:54:25.530Z,4.30
2022-09-28T15:56:55.381Z,3.10
2022-09-28T15:59:35.041Z,4.70
2022-09-28T16:02:13.284Z,3.10
2022-09-28T16:04:43.705Z,2.90
2022-09-28T16:07:10.700Z,2.87
2022-09-28T16:10:13.562Z,3.20
2022-09-28T16:12:42.351Z,3.57
2022-09-28T16:15:23.708Z,3.20
2022-09-28T16:17:57.991Z,3.97
2022-09-28T16:20:32.701Z,4.40
2022-09-28T16:23:06.080Z,4.67
2022-09-28T16:25:37.562Z,4.57
2022-09-28T16:28:05.480Z,5.90
2022-09-28T16:30:34.754Z,4.20
2022-09-28T16:33:25.372Z,4.00
2022-09-28T16:35:52.621Z,5.87
2022-09-28T16:38:20.421Z,4.00
2022-09-28T16:40:54.850Z,3.20
2022-09-28T16:43:31.079Z,5.03
2022-09-28T16:46:05.301Z,4.50
2022-09-28T16:48:36.781Z,3.60
2022-09-28T16:51:03.938Z,4.07
2022-09-28T16:53:49.359Z,4.83
2022-09-28T16:56:16.591Z,3.20
2022-09-28T16:58:44.399Z,4.23
2022-09-28T17:01:13.095Z,4.10
2022-09-28T17:03:46.722Z,30.83
2022-09-28T17:06:15.181Z,5.13
2022-09-28T17:08:43.362Z,5.23
2022-09-28T17:11:23.730Z,4.60
2022-09-28T17:13:56.919Z,3.93
2022-09-28T17:16:50.990Z,3.33
2022-09-28T17:19:27.060Z,6.27
2022-09-28T17:21:54.155Z,5.00
2022-09-28T17:24:21.426Z,6.17
2022-09-28T17:26:51.972Z,4.73
2022-09-28T17:29:19.822Z,8.20
2022-09-28T17:31:48.041Z,3.70
2022-09-28T17:34:16.690Z,4.23
2022-09-28T17:36:44.979Z,4.83
2022-09-28T17:39:13.806Z,5.03
2022-09-28T17:41:41.294Z,7.33
2022-09-28T17:44:09.121Z,15.60
2022-09-28T17:46:38.994Z,6.93
2022-09-28T17:49:08.071Z,4.70
2022-09-28T17:51:39.807Z,5.80
2022-09-28T17:54:08.239Z,5.23
2022-09-28T17:56:36.551Z,5.40
2022-09-28T17:59:10.820Z,6.67
2022-09-28T18:01:39.909Z,6.27
2022-09-28T18:04:08.975Z,4.83
2022-09-28T18:06:37.531Z,4.90
2022-09-28T18:09:05.657Z,9.97
2022-09-28T18:11:33.885Z,5.23
2022-09-28T18:14:01.066Z,11.57
2022-09-28T18:16:29.036Z,5.27
2022-09-28T18:18:56.291Z,6.17
2022-09-28T18:21:23.362Z,7.57
2022-09-28T18:23:50.485Z,6.73
2022-09-28T18:26:19.696Z,6.67
2022-09-28T18:28:47.064Z,6.27
2022-09-28T18:31:15.914Z,12.00
2022-09-28T18:33:52.518Z,6.73
2022-09-28T18:36:19.490Z,7.17
2022-09-28T18:38:46.474Z,6.27
2022-09-28T18:41:16.106Z,7.33
2022-09-28T18:43:50.339Z,8.53
2022-09-28T18:46:18.819Z,8.23
2022-09-28T18:48:47.295Z,7.93
2022-09-28T18:51:15.082Z,6.53
2022-09-28T18:53:42.321Z,6.87
2022-09-28T18:56:14.611Z,7.03
2022-09-28T18:58:42.881Z,6.50
2022-09-28T19:01:32.061Z,6.43
2022-09-28T19:04:04.785Z,6.70
2022-09-28T19:06:32.662Z,8.37
2022-09-28T19:09:00.126Z,8.80
2022-09-28T19:11:27.670Z,7.33
2022-09-28T19:13:55.910Z,7.03
2022-09-28T19:16:28.901Z,7.53
2022-09-28T19:18:57.860Z,8.53
2022-09-28T19:21:26.990Z,10.53
2022-09-28T19:23:55.629Z,10.07
2022-09-28T19:26:27.526Z,7.43
2022-09-28T19:28:57.080Z,8.23
2022-09-28T19:31:25.545Z,7.47
2022-09-28T19:33:52.599Z,8.37
2022-09-28T19:36:23.825Z,8.07
2022-09-28T19:38:55.199Z,8.37
2022-09-28T19:41:46.099Z,11.40
2022-09-28T19:44:25.283Z,6.90
2022-09-28T19:46:53.816Z,8.17
2022-09-28T19:49:22.558Z,8.17
2022-09-28T19:52:12.676Z,8.67
2022-09-28T19:54:41.540Z,8.03
2022-09-28T19:57:09.052Z,9.57
2022-09-28T19:59:37.727Z,8.23
2022-09-28T20:02:08.855Z,9.67
2022-09-28T20:04:35.915Z,7.80
2022-09-28T20:07:04.581Z,7.53
2022-09-28T20:09:32.685Z,8.43
2022-09-28T20:11:59.780Z,9.60
2022-09-28T20:14:32.886Z,8.23
2022-09-28T20:17:03.507Z,7.97
2022-09-28T20:19:30.585Z,8.67
2022-09-28T20:21:59.519Z,9.17
2022-09-28T20:24:28.824Z,10.13
2022-09-28T20:26:56.112Z,8.67
2022-09-28T20:29:24.387Z,9.70
2022-09-28T20:31:52.105Z,9.77
2022-09-28T20:34:19.490Z,11.33
2022-09-28T20:36:46.559Z,9.47
2022-09-28T20:39:13.562Z,8.30
2022-09-28T20:41:41.359Z,9.30
2022-09-28T20:44:09.971Z,9.90
2022-09-28T20:46:38.191Z,8.13
2022-09-28T20:49:05.805Z,11.03
2022-09-28T20:51:33.074Z,10.17
2022-09-28T20:54:00.562Z,8.43
2022-09-28T20:56:37.795Z,9.53
2022-09-28T20:59:10.365Z,9.40
2022-09-28T21:01:37.440Z,10.60
2022-09-28T21:04:06.706Z,9.50
2022-09-28T21:06:35.898Z,9.63
2022-09-28T21:09:04.585Z,9.80
2022-09-28T21:11:34.466Z,10.23
2022-09-28T21:14:03.921Z,10.00
2022-09-28T21:16:33.387Z,9.63
2022-09-28T21:19:00.587Z,10.73
2022-09-28T21:21:27.719Z,10.63
2022-09-28T21:23:58.832Z,8.87
2022-09-28T21:26:28.780Z,11.30
2022-09-28T21:28:56.531Z,8.73
2022-09-28T21:31:28.776Z,13.00
2022-09-28T21:33:58.890Z,9.00
2022-09-28T21:36:27.423Z,10.50
2022-09-28T21:39:07.003Z,9.17
2022-09-28T21:41:37.600Z,10.13
2022-09-28T21:44:18.873Z,10.13
2022-09-28T21:46:47.201Z,10.13
2022-09-28T21:49:24.200Z,11.53
2022-09-28T21:51:53.202Z,10.23
2022-09-28T21:54:22.115Z,9.37
2022-09-28T21:56:50.381Z,9.40
2022-09-28T21:59:25.858Z,9.23
2022-09-28T22:01:56.308Z,9.47
2022-09-28T22:04:24.399Z,8.97
2022-09-28T22:06:53.743Z,9.50
2022-09-28T22:09:24.118Z,8.83
2022-09-28T22:11:52.661Z,8.20
2022-09-28T22:14:21.385Z,7.57
2022-09-28T22:16:52.839Z,8.17
2022-09-28T22:19:30.281Z,9.30
2022-09-28T22:22:00.696Z,9.13
2022-09-28T22:24:29.800Z,8.73
2022-09-28T22:26:59.336Z,10.50
2022-09-28T22:29:28.308Z,9.83
2022-09-28T22:32:03.225Z,11.43
2022-09-28T22:34:42.831Z,8.43
2022-09-28T22:37:09.799Z,9.80
2022-09-28T22:39:38.028Z,9.43
2022-09-28T22:42:11.603Z,8.50
2022-09-28T22:44:48.038Z,11.47
2022-09-28T22:47:16.475Z,9.17
2022-09-28T22:49:52.151Z,9.73
2022-09-28T22:52:20.502Z,9.80
2022-09-28T22:54:49.211Z,11.47
2022-09-28T22:57:18.701Z,9.20
2022-09-28T22:59:47.142Z,9.43
2022-09-28T23:02:18.416Z,9.33
2022-09-28T23:04:49.697Z,9.83
2022-09-28T23:07:20.061Z,9.77
2022-09-28T23:09:57.056Z,9.50
2022-09-28T23:12:25.521Z,9.53
2022-09-28T23:14:53.769Z,9.60
2022-09-28T23:17:20.817Z,10.03
2022-09-28T23:19:57.936Z,10.17
2022-09-28T23:22:28.201Z,12.87
2022-09-28T23:24:57.795Z,9.53
2022-09-28T23:27:28.346Z,9.57
2022-09-28T23:29:57.881Z,10.30
2022-09-28T23:32:31.130Z,10.47
2022-09-28T23:35:01.229Z,11.37
2022-09-28T23:37:31.039Z,9.33
2022-09-28T23:40:09.544Z,10.73
2022-09-28T23:42:40.022Z,8.93
2022-09-28T23:45:07.480Z,10.07
2022-09-28T23:47:38.817Z,10.03
2022-09-28T23:50:09.161Z,9.23
2022-09-28T23:52:39.880Z,11.20
2022-09-28T23:55:10.536Z,8.87
2022-09-28T23:57:40.885Z,11.23
